Time;durP1;ratioP1;P1;durP2;ratioP2;P2;SDS_P1;SDS_P2;PMS_P1;PMS_P2;Temp;Humidity;BMP_temperature;BMP_pressure;BME280_temperature;BME280_humidity;BME280_pressure;Samples;Min_cycle;Max_cycle;Signal;HPM_P1;HPM_P2
2023/09/26 00:01:09;;;;;;;1.48;1.38;;;21.00;48.60;;;;;;5103300;27;45412;-64
2023/09/26 00:03:35;;;;;;;1.00;1.00;;;20.90;48.60;;;;;;5105401;27;45415;-65
2023/09/26 00:06:02;;;;;;;1.27;1.17;;;20.90;48.60;;;;;;5105667;27;45188;-65
2023/09/26 00:08:29;;;;;;;1.33;1.23;;;20.90;48.60;;;;;;5105780;27;45267;-64
2023/09/26 00:10:57;;;;;;;1.55;0.85;;;20.90;48.60;;;;;;5105803;27;45458;-65
2023/09/26 00:13:25;;;;;;;1.23;1.13;;;20.90;48.70;;;;;;5105355;27;45323;-64
2023/09/26 00:15:52;;;;;;;1.13;1.10;;;20.90;48.70;;;;;;5105603;27;45279;-64
2023/09/26 00:18:19;;;;;;;1.10;1.00;;;20.90;48.70;;;;;;5105657;27;45322;-64
2023/09/26 00:20:45;;;;;;;1.42;1.08;;;20.80;48.70;;;;;;5106693;27;45345;-64
2023/09/26 00:23:12;;;;;;;1.35;1.10;;;20.80;48.70;;;;;;5108756;27;46365;-64
2023/09/26 00:25:39;;;;;;;1.40;1.10;;;20.80;48.70;;;;;;5108847;27;45508;-64
2023/09/26 00:28:07;;;;;;;1.38;1.20;;;20.80;48.70;;;;;;5109096;27;45306;-64
2023/09/26 00:30:35;;;;;;;1.20;1.10;;;20.80;48.70;;;;;;5109104;27;45285;-64
2023/09/26 00:33:02;;;;;;;1.35;1.20;;;20.80;48.70;;;;;;5108576;27;45489;-64
2023/09/26 00:35:29;;;;;;;1.27;1.00;;;20.80;48.70;;;;;;5108641;27;45374;-64
2023/09/26 00:37:56;;;;;;;0.95;0.95;;;20.70;48.60;;;;;;5108988;27;45280;-64
2023/09/26 00:40:23;;;;;;;1.05;1.02;;;20.70;48.60;;;;;;5109035;27;45223;-64
2023/09/26 00:42:50;;;;;;;1.23;1.13;;;20.70;48.70;;;;;;5108493;27;45313;-64
2023/09/26 00:45:17;;;;;;;1.65;1.13;;;20.70;48.70;;;;;;5108644;27;45558;-65
2023/09/26 00:47:45;;;;;;;2.55;1.25;;;20.70;48.70;;;;;;5108841;27;45215;-65
2023/09/26 00:50:13;;;;;;;1.63;1.00;;;20.70;48.70;;;;;;5108791;27;45268;-64
2023/09/26 00:52:40;;;;;;;1.52;0.90;;;20.60;48.70;;;;;;5108425;27;45452;-64
2023/09/26 00:55:08;;;;;;;1.55;1.10;;;20.60;48.70;;;;;;5108349;27;45372;-65
2023/09/26 00:57:35;;;;;;;1.27;1.17;;;20.60;48.70;;;;;;5108630;27;45243;-64
2023/09/26 01:00:08;;;;;;;1.35;1.17;;;20.60;48.70;;;;;;5108731;27;45620;-64
2023/09/26 01:02:35;;;;;;;1.27;1.00;;;20.60;49.40;;;;;;5108168;27;46813;-64
2023/09/26 01:05:04;;;;;;;1.30;1.13;;;20.60;48.80;;;;;;5108361;27;45307;-64
2023/09/26 01:07:31;;;;;;;2.13;1.20;;;20.60;48.80;;;;;;5108356;27;45335;-64
2023/09/26 01:09:58;;;;;;;0.95;0.95;;;20.50;48.80;;;;;;5108521;27;45430;-64
2023/09/26 01:12:26;;;;;;;1.10;1.00;;;20.50;48.80;;;;;;5107901;27;46468;-65
2023/09/26 01:14:53;;;;;;;1.30;0.98;;;20.50;48.80;;;;;;5108276;27;45142;-64
2023/09/26 01:17:20;;;;;;;1.27;1.17;;;20.50;48.70;;;;;;5108198;27;45269;-64
2023/09/26 01:19:46;;;;;;;1.10;1.00;;;20.50;48.80;;;;;;5108284;27;45470;-64
2023/09/26 01:22:16;;;;;;;0.93;0.90;;;20.50;48.80;;;;;;5108115;27;45324;-66
2023/09/26 01:24:44;;;;;;;1.33;1.08;;;20.50;48.80;;;;;;5107983;27;45275;-65
2023/09/26 01:27:11;;;;;;;1.27;1.02;;;20.40;48.80;;;;;;5108078;27;45373;-64
2023/09/26 01:29:38;;;;;;;1.30;1.20;;;20.40;48.80;;;;;;5108293;27;45362;-64
2023/09/26 01:32:05;;;;;;;1.15;1.00;;;20.40;49.10;;;;;;5106834;27;46460;-64
2023/09/26 01:34:32;;;;;;;1.42;1.05;;;20.40;48.90;;;;;;5107558;27;45377;-64
2023/09/26 01:36:59;;;;;;;1.17;1.10;;;20.40;48.90;;;;;;5108386;27;45391;-65
2023/09/26 01:39:25;;;;;;;1.20;1.00;;;20.40;48.90;;;;;;5108326;27;45331;-66
2023/09/26 01:41:54;;;;;;;1.92;1.20;;;20.30;48.90;;;;;;5107691;27;47763;-64
2023/09/26 01:44:20;;;;;;;1.77;1.25;;;20.30;48.90;;;;;;5107744;27;45370;-64
2023/09/26 01:46:47;;;;;;;0.98;0.98;;;20.30;48.90;;;;;;5108001;27;45264;-65
2023/09/26 01:49:14;;;;;;;0.70;0.70;;;20.30;49.00;;;;;;5108199;27;45172;-64
2023/09/26 01:51:41;;;;;;;0.93;0.93;;;20.30;48.90;;;;;;5107599;27;45537;-64
2023/09/26 01:54:08;;;;;;;0.90;0.90;;;20.30;48.90;;;;;;5107389;27;45424;-64
2023/09/26 01:56:34;;;;;;;1.10;0.88;;;20.20;48.90;;;;;;5107812;27;45432;-64
2023/09/26 01:59:03;;;;;;;2.00;1.00;;;20.20;48.90;;;;;;5108106;27;45260;-64
2023/09/26 02:01:29;;;;;;;0.95;0.95;;;20.20;48.90;;;;;;5107366;27;46672;-65
2023/09/26 02:03:56;;;;;;;1.20;1.10;;;20.20;48.90;;;;;;5107284;27;45332;-64
2023/09/26 02:06:23;;;;;;;0.90;0.90;;;20.20;48.90;;;;;;5107869;27;45410;-64
2023/09/26 02:08:50;;;;;;;1.42;1.08;;;20.20;49.50;;;;;;5107718;27;45415;-64
2023/09/26 02:11:17;;;;;;;1.35;1.10;;;20.20;48.90;;;;;;5107168;27;46488;-64
2023/09/26 02:13:44;;;;;;;1.15;1.05;;;20.10;48.90;;;;;;5107113;27;45227;-64
2023/09/26 02:16:12;;;;;;;1.08;0.98;;;20.10;49.50;;;;;;5107294;27;45310;-64
2023/09/26 02:18:39;;;;;;;1.02;1.00;;;20.10;48.90;;;;;;5107474;27;45511;-64
2023/09/26 02:21:06;;;;;;;1.00;0.90;;;20.10;48.90;;;;;;5107059;27;45310;-64
2023/09/26 02:23:33;;;;;;;1.20;0.98;;;20.10;48.90;;;;;;5107017;27;45340;-65
2023/09/26 02:26:00;;;;;;;1.10;0.90;;;20.10;49.00;;;;;;5107270;27;45382;-64
2023/09/26 02:28:27;;;;;;;1.05;0.90;;;20.10;49.00;;;;;;5107385;27;45408;-64
2023/09/26 02:30:53;;;;;;;1.00;0.93;;;20.10;49.00;;;;;;5107038;27;46396;-64
2023/09/26 02:33:22;;;;;;;1.15;1.05;;;20.00;49.00;;;;;;5106819;27;45388;-63
2023/09/26 02:35:49;;;;;;;2.83;1.33;;;20.00;49.00;;;;;;5106890;27;45432;-64
2023/09/26 02:38:15;;;;;;;1.58;1.00;;;20.00;49.00;;;;;;5107345;27;45410;-64
2023/09/26 02:40:42;;;;;;;1.30;1.20;;;20.00;49.00;;;;;;5106725;27;46897;-64
2023/09/26 02:43:09;;;;;;;1.30;0.93;;;20.00;49.10;;;;;;5106695;27;45292;-63
2023/09/26 02:45:36;;;;;;;1.92;0.98;;;20.00;49.00;;;;;;5106980;27;45261;-64
2023/09/26 02:48:04;;;;;;;1.20;1.10;;;20.00;49.00;;;;;;5107028;27;45390;-64
2023/09/26 02:50:32;;;;;;;1.20;1.10;;;20.00;49.10;;;;;;5106399;27;46651;-64
2023/09/26 02:52:59;;;;;;;1.30;0.90;;;19.90;49.10;;;;;;5106371;27;45446;-64
2023/09/26 02:55:26;;;;;;;1.27;1.17;;;19.90;49.00;;;;;;5106896;27;45370;-64
2023/09/26 02:57:53;;;;;;;1.20;1.10;;;19.90;49.10;;;;;;5106911;27;45309;-64
2023/09/26 03:00:20;;;;;;;0.90;0.90;;;19.90;49.00;;;;;;5106576;27;45319;-64
2023/09/26 03:02:47;;;;;;;1.33;1.10;;;19.90;49.10;;;;;;5106581;27;45331;-64
2023/09/26 03:05:14;;;;;;;1.25;1.10;;;19.90;49.10;;;;;;5108560;27;45320;-64
2023/09/26 03:07:42;;;;;;;1.30;1.20;;;19.80;49.10;;;;;;5106802;27;45431;-64
2023/09/26 03:10:10;;;;;;;3.90;1.10;;;19.80;49.10;;;;;;5106276;27;45307;-64
2023/09/26 03:12:36;;;;;;;2.20;1.27;;;19.80;49.10;;;;;;5106251;27;45486;-64
2023/09/26 03:15:06;;;;;;;1.25;1.15;;;19.80;49.70;;;;;;5106510;27;45353;-64
2023/09/26 03:17:33;;;;;;;1.25;1.13;;;19.80;49.10;;;;;;5106717;27;45615;-64
2023/09/26 03:19:59;;;;;;;0.90;0.90;;;19.80;49.00;;;;;;5106230;27;46444;-64
2023/09/26 03:22:26;;;;;;;0.77;0.77;;;19.80;49.10;;;;;;5106190;27;45346;-66
2023/09/26 03:24:55;;;;;;;1.40;1.30;;;19.80;49.10;;;;;;5106493;27;45442;-64
2023/09/26 03:27:22;;;;;;;2.25;1.02;;;19.70;49.10;;;;;;5106568;27;45311;-64
2023/09/26 03:29:50;;;;;;;1.17;1.00;;;19.80;49.20;;;;;;5103404;27;45372;-64
2023/09/26 03:32:17;;;;;;;2.00;0.90;;;19.70;49.10;;;;;;5105873;27;45413;-64
2023/09/26 03:34:44;;;;;;;1.52;1.05;;;19.70;49.10;;;;;;5105994;27;45549;-65
2023/09/26 03:37:11;;;;;;;1.33;0.95;;;19.70;49.10;;;;;;5106338;27;45374;-65
2023/09/26 03:39:38;;;;;;;1.75;1.20;;;19.70;49.10;;;;;;5105905;27;46390;-64
2023/09/26 03:42:06;;;;;;;0.93;0.93;;;19.70;49.10;;;;;;5105942;27;45261;-64
2023/09/26 03:44:33;;;;;;;1.50;1.13;;;19.70;49.20;;;;;;5105991;27;45329;-63
2023/09/26 03:47:00;;;;;;;0.98;0.90;;;19.60;49.10;;;;;;5106396;27;45348;-64
2023/09/26 03:49:26;;;;;;;1.55;1.10;;;19.60;49.20;;;;;;5105873;27;46302;-64
2023/09/26 03:51:53;;;;;;;3.47;1.25;;;19.60;49.20;;;;;;5105664;27;45337;-64
2023/09/26 03:54:20;;;;;;;1.48;1.10;;;19.60;49.20;;;;;;5105916;27;45382;-64
2023/09/26 03:56:47;;;;;;;3.08;1.05;;;19.60;49.20;;;;;;5108318;27;45374;-64
2023/09/26 03:59:16;;;;;;;3.05;1.10;;;19.60;49.10;;;;;;5109238;27;46365;-64
2023/09/26 04:01:43;;;;;;;1.95;1.52;;;19.60;49.20;;;;;;5109311;27;45311;-64
2023/09/26 04:04:10;;;;;;;1.92;1.10;;;19.60;49.20;;;;;;5109376;27;45268;-64
2023/09/26 04:06:38;;;;;;;1.77;1.30;;;19.60;49.20;;;;;;5109762;27;45321;-64
2023/09/26 04:09:05;;;;;;;1.40;1.30;;;19.50;49.20;;;;;;5109182;27;45624;-63
2023/09/26 04:11:32;;;;;;;1.73;1.15;;;19.50;49.10;;;;;;5109304;27;45307;-64
2023/09/26 04:13:59;;;;;;;0.82;0.82;;;19.50;49.10;;;;;;5109166;27;45322;-64
2023/09/26 04:16:27;;;;;;;1.17;1.10;;;19.50;49.20;;;;;;5109524;27;45287;-63
2023/09/26 04:18:54;;;;;;;1.95;0.90;;;19.50;49.20;;;;;;5109077;27;46417;-64
2023/09/26 04:21:21;;;;;;;1.17;1.08;;;19.50;49.20;;;;;;5109081;27;45366;-64
2023/09/26 04:23:47;;;;;;;1.55;1.10;;;19.50;49.80;;;;;;5109246;27;45317;-64
2023/09/26 04:26:15;;;;;;;1.17;0.93;;;19.50;49.20;;;;;;5109235;27;45472;-63
2023/09/26 04:28:42;;;;;;;3.28;1.23;;;19.40;49.20;;;;;;5108854;27;46372;-64
2023/09/26 04:31:13;;;;;;;2.35;1.10;;;19.40;49.30;;;;;;5109891;27;45291;-64
2023/09/26 04:33:41;;;;;;;1.35;1.25;;;19.40;49.30;;;;;;5109005;27;45260;-64
2023/09/26 04:36:08;;;;;;;1.08;1.05;;;19.40;49.20;;;;;;5108769;27;45452;-64
2023/09/26 04:38:35;;;;;;;2.83;1.30;;;19.40;49.90;;;;;;5108864;27;46300;-63
2023/09/26 04:41:03;;;;;;;2.13;1.10;;;19.40;49.30;;;;;;5108759;27;45409;-64
2023/09/26 04:43:30;;;;;;;3.85;1.10;;;19.40;49.30;;;;;;5109634;27;45133;-63
2023/09/26 04:45:57;;;;;;;1.80;1.10;;;19.40;49.30;;;;;;5112085;27;45411;-63
2023/09/26 04:48:24;;;;;;;1.83;1.10;;;19.40;49.30;;;;;;5109796;27;45312;-65
2023/09/26 04:50:54;;;;;;;1.77;1.13;;;19.30;49.20;;;;;;5109067;27;45416;-64
2023/09/26 04:53:21;;;;;;;1.58;1.02;;;19.30;49.20;;;;;;5108652;27;45361;-64
2023/09/26 04:55:48;;;;;;;1.00;1.00;;;19.40;49.30;;;;;;5109236;27;45698;-65
2023/09/26 04:58:15;;;;;;;1.23;1.08;;;19.40;49.30;;;;;;5108911;27;47476;-64
2023/09/26 05:00:42;;;;;;;1.20;1.10;;;19.30;49.30;;;;;;5108933;27;45399;-64
2023/09/26 05:03:09;;;;;;;1.63;0.95;;;19.30;49.30;;;;;;5109033;27;45315;-65
2023/09/26 05:05:35;;;;;;;1.83;1.05;;;19.30;49.30;;;;;;5109107;27;45280;-64
2023/09/26 05:08:04;;;;;;;1.58;1.05;;;19.30;49.40;;;;;;5108385;27;47409;-64
2023/09/26 05:10:32;;;;;;;1.20;0.90;;;19.30;49.30;;;;;;5108518;27;45348;-64
2023/09/26 05:12:58;;;;;;;1.95;0.90;;;19.30;49.40;;;;;;5108521;27;45327;-64
2023/09/26 05:15:25;;;;;;;1.85;0.82;;;19.30;49.40;;;;;;5108454;27;45498;-64
2023/09/26 05:17:52;;;;;;;1.80;1.10;;;19.30;49.40;;;;;;5108662;27;45452;-64
2023/09/26 05:20:19;;;;;;;1.40;0.85;;;19.30;49.40;;;;;;5108644;27;45367;-66
2023/09/26 05:22:48;;;;;;;1.35;1.00;;;19.30;49.40;;;;;;5108426;27;45412;-64
2023/09/26 05:25:16;;;;;;;3.03;1.13;;;19.20;49.40;;;;;;5108732;27;45121;-64
2023/09/26 05:27:43;;;;;;;1.40;1.05;;;19.20;49.40;;;;;;5107942;27;46301;-65
2023/09/26 05:30:11;;;;;;;1.88;1.00;;;19.20;49.50;;;;;;5108167;27;45424;-64
2023/09/26 05:32:38;;;;;;;4.00;1.23;;;19.20;49.50;;;;;;5108563;27;45314;-65
2023/09/26 05:35:07;;;;;;;1.10;1.00;;;19.20;49.50;;;;;;5108175;27;45559;-64
2023/09/26 05:37:33;;;;;;;1.70;1.02;;;19.20;49.50;;;;;;5107787;27;45468;-64
2023/09/26 05:40:01;;;;;;;4.03;1.23;;;19.20;49.50;;;;;;5107795;27;45442;-64
2023/09/26 05:42:29;;;;;;;1.73;1.00;;;19.20;49.60;;;;;;5107818;27;45410;-64
2023/09/26 05:44:56;;;;;;;2.28;0.93;;;19.20;49.60;;;;;;5107935;27;45192;-64
2023/09/26 05:47:23;;;;;;;1.58;1.05;;;19.20;49.60;;;;;;5107727;27;46439;-64
2023/09/26 05:49:50;;;;;;;3.22;1.33;;;19.10;49.60;;;;;;5107473;27;45358;-63
2023/09/26 05:52:17;;;;;;;2.97;1.20;;;19.20;49.60;;;;;;5107827;27;45304;-64
2023/09/26 05:54:44;;;;;;;2.45;1.10;;;19.10;49.60;;;;;;5107639;27;45163;-64
2023/09/26 05:57:11;;;;;;;1.27;1.00;;;19.10;49.60;;;;;;5107431;27;46867;-63
2023/09/26 05:59:39;;;;;;;1.10;1.00;;;19.10;49.60;;;;;;5107418;27;45212;-64
2023/09/26 06:02:07;;;;;;;1.20;1.10;;;19.10;49.60;;;;;;5107382;27;45451;-64
2023/09/26 06:04:35;;;;;;;1.20;1.10;;;19.20;49.80;;;;;;5107632;27;45169;-64
2023/09/26 06:07:02;;;;;;;1.67;0.82;;;19.10;49.60;;;;;;5107239;27;47333;-64
2023/09/26 06:09:30;;;;;;;0.80;0.80;;;19.20;49.60;;;;;;5107213;27;45307;-64
2023/09/26 06:11:57;;;;;;;1.95;0.90;;;19.10;49.60;;;;;;5107347;27;45473;-65
2023/09/26 06:14:24;;;;;;;2.28;1.02;;;19.10;49.60;;;;;;5107530;27;45174;-64
2023/09/26 06:16:53;;;;;;;2.72;1.17;;;19.10;49.50;;;;;;5107032;27;45296;-64
2023/09/26 06:19:20;;;;;;;1.08;0.98;;;19.10;49.60;;;;;;5106568;27;45361;-64
2023/09/26 06:21:47;;;;;;;1.20;1.10;;;19.10;49.50;;;;;;5107437;27;45328;-63
2023/09/26 06:24:14;;;;;;;1.30;1.10;;;19.10;49.50;;;;;;5107426;27;45137;-64
2023/09/26 06:26:41;;;;;;;1.70;1.10;;;19.10;49.50;;;;;;5107046;27;46411;-63
2023/09/26 06:29:14;;;;;;;0.80;0.80;;;19.20;49.60;;;;;;5107044;27;45230;-63
2023/09/26 06:31:42;;;;;;;1.40;1.00;;;19.10;49.50;;;;;;5106987;27;45341;-64
2023/09/26 06:34:11;;;;;;;1.45;1.30;;;19.20;49.50;;;;;;5107058;27;45319;-63
2023/09/26 06:36:38;;;;;;;1.30;1.20;;;19.10;49.50;;;;;;5106361;27;45469;-63
2023/09/26 06:39:04;;;;;;;1.27;1.00;;;19.10;49.40;;;;;;5106790;27;45370;-64
2023/09/26 06:41:31;;;;;;;3.25;1.27;;;19.20;49.50;;;;;;5106742;27;45200;-64
2023/09/26 06:43:58;;;;;;;0.90;0.90;;;19.20;50.10;;;;;;5104275;27;45281;-64
2023/09/26 06:46:25;;;;;;;1.00;0.90;;;19.20;49.40;;;;;;5106742;27;45434;-64
2023/09/26 06:48:53;;;;;;;2.35;1.30;;;19.20;49.50;;;;;;5106583;27;45375;-63
2023/09/26 06:51:21;;;;;;;1.10;1.00;;;19.20;49.40;;;;;;5106878;27;45411;-64
2023/09/26 06:53:49;;;;;;;0.88;0.82;;;19.20;49.40;;;;;;5106836;27;45363;-63
2023/09/26 06:56:16;;;;;;;1.05;0.95;;;19.20;49.40;;;;;;5106537;27;45358;-64
2023/09/26 06:58:48;;;;;;;2.95;1.10;;;19.20;49.40;;;;;;5106479;27;45369;-63
2023/09/26 07:01:15;;;;;;;4.53;1.10;;;19.20;49.40;;;;;;5106732;27;45317;-63
2023/09/26 07:03:42;;;;;;;1.48;1.15;;;19.20;49.40;;;;;;5106659;27;45354;-64
2023/09/26 07:06:10;;;;;;;1.23;1.13;;;19.20;49.40;;;;;;5106250;27;46676;-65
2023/09/26 07:08:38;;;;;;;1.35;1.23;;;19.20;49.40;;;;;;5106274;27;45145;-63
2023/09/26 07:11:05;;;;;;;1.15;1.08;;;19.20;49.30;;;;;;5106604;27;45303;-64
2023/09/26 07:13:34;;;;;;;2.28;1.17;;;19.20;49.30;;;;;;5106501;27;45368;-64
2023/09/26 07:16:03;;;;;;;2.33;1.10;;;19.30;49.40;;;;;;5106252;27;46532;-64
2023/09/26 07:18:31;;;;;;;1.55;1.10;;;19.30;49.40;;;;;;5106371;27;45331;-64
2023/09/26 07:21:00;;;;;;;2.58;1.10;;;19.30;49.40;;;;;;5103736;27;45417;-64
2023/09/26 07:23:27;;;;;;;1.20;1.10;;;19.30;49.40;;;;;;5106318;27;45268;-64
2023/09/26 07:26:07;;;;;;;1.42;1.02;;;19.30;49.30;;;;;;5106231;27;46207;-70
2023/09/26 07:28:35;;;;;;;1.50;0.95;;;19.30;49.40;;;;;;5106605;27;45361;-71
2023/09/26 07:31:02;;;;;;;1.05;0.90;;;19.30;49.30;;;;;;5108444;27;45326;-71
2023/09/26 07:33:29;;;;;;;2.50;1.30;;;19.30;49.30;;;;;;5110411;27;45452;-71
2023/09/26 07:35:56;;;;;;;1.55;0.90;;;19.30;49.30;;;;;;5110093;27;45454;-71
2023/09/26 07:38:22;;;;;;;1.13;1.02;;;19.30;49.30;;;;;;5110376;27;46300;-71
2023/09/26 07:40:49;;;;;;;1.88;1.10;;;19.30;49.40;;;;;;5110662;27;45326;-71
2023/09/26 07:43:18;;;;;;;1.95;1.17;;;19.30;49.30;;;;;;5110692;27;45394;-71
2023/09/26 07:45:44;;;;;;;1.98;1.00;;;19.40;49.40;;;;;;5110191;27;46499;-70
2023/09/26 07:48:11;;;;;;;1.65;1.20;;;19.40;49.40;;;;;;5110165;27;45510;-71
2023/09/26 07:50:38;;;;;;;1.98;1.25;;;19.40;49.40;;;;;;5110507;27;45397;-71
2023/09/26 07:53:05;;;;;;;3.13;1.05;;;19.40;49.30;;;;;;5110429;27;45396;-70
2023/09/26 07:55:32;;;;;;;1.92;1.15;;;19.40;49.40;;;;;;5110246;27;47440;-71
2023/09/26 07:57:58;;;;;;;1.67;1.02;;;19.40;49.30;;;;;;5110496;27;45351;-71
2023/09/26 08:00:27;;;;;;;1.50;0.95;;;19.40;49.30;;;;;;5110567;27;45354;-71
2023/09/26 08:02:54;;;;;;;3.75;1.65;;;19.40;49.30;;;;;;5110681;27;45370;-71
2023/09/26 08:05:20;;;;;;;1.30;0.82;;;19.50;49.30;;;;;;5109976;27;46951;-71
2023/09/26 08:07:48;;;;;;;2.08;1.38;;;19.50;49.30;;;;;;5110024;27;45160;-71
2023/09/26 08:10:15;;;;;;;2.08;1.33;;;19.50;49.30;;;;;;5109534;27;45272;-70
2023/09/26 08:12:42;;;;;;;0.95;0.90;;;19.50;49.30;;;;;;5110020;27;45369;-71
2023/09/26 08:15:09;;;;;;;3.45;1.17;;;19.50;49.40;;;;;;5109913;27;46384;-70
2023/09/26 08:17:37;;;;;;;1.00;1.00;;;19.50;49.30;;;;;;5109973;27;45369;-70
2023/09/26 08:20:05;;;;;;;1.10;1.00;;;19.50;49.30;;;;;;5110266;27;45338;-71
2023/09/26 08:22:32;;;;;;;0.80;0.80;;;19.60;49.30;;;;;;5109909;27;45434;-71
2023/09/26 08:24:59;;;;;;;1.17;0.77;;;19.60;49.30;;;;;;5109675;27;46558;-70
2023/09/26 08:27:26;;;;;;;1.60;1.13;;;19.60;49.30;;;;;;5109745;27;45267;-71
2023/09/26 08:29:53;;;;;;;2.20;0.98;;;19.60;49.30;;;;;;5109978;27;45149;-71
2023/09/26 08:32:20;;;;;;;1.10;0.98;;;19.60;49.30;;;;;;5109930;27;45315;-71
2023/09/26 08:34:48;;;;;;;1.80;1.38;;;19.70;49.30;;;;;;5109139;27;45731;-71
2023/09/26 08:37:15;;;;;;;1.35;1.25;;;19.70;49.20;;;;;;5109583;27;45446;-70
2023/09/26 08:39:43;;;;;;;1.77;1.17;;;19.70;49.20;;;;;;5109789;27;45382;-70
2023/09/26 08:42:10;;;;;;;1.25;1.10;;;19.70;49.10;;;;;;5109316;27;45433;-71
2023/09/26 08:44:37;;;;;;;1.25;1.00;;;19.80;49.10;;;;;;5109053;27;48528;-71
2023/09/26 08:47:04;;;;;;;1.08;0.90;;;19.80;49.10;;;;;;5109380;27;45462;-71
2023/09/26 08:49:31;;;;;;;2.22;1.10;;;19.80;49.20;;;;;;5109708;27;45296;-70
2023/09/26 08:51:59;;;;;;;1.20;1.10;;;19.80;49.10;;;;;;5109621;27;45144;-71
2023/09/26 08:54:26;;;;;;;1.10;1.08;;;19.80;49.10;;;;;;5108435;27;45318;-71
2023/09/26 08:56:52;;;;;;;2.65;1.30;;;19.80;49.00;;;;;;5109196;27;45386;-70
2023/09/26 08:59:19;;;;;;;1.08;1.08;;;19.90;49.10;;;;;;5109442;27;45315;-71
2023/09/26 09:01:46;;;;;;;0.88;0.88;;;19.90;49.10;;;;;;5109411;27;45369;-71
2023/09/26 09:04:13;;;;;;;1.80;1.10;;;19.90;49.00;;;;;;5108871;27;45416;-70
2023/09/26 09:06:40;;;;;;;1.13;1.00;;;19.90;49.00;;;;;;5109059;27;45196;-71
2023/09/26 09:09:10;;;;;;;1.13;1.02;;;20.00;49.00;;;;;;5109271;27;45307;-70
2023/09/26 09:11:37;;;;;;;0.95;0.95;;;20.00;49.10;;;;;;5109353;27;45434;-72
2023/09/26 09:14:03;;;;;;;1.05;1.00;;;20.00;49.00;;;;;;5108885;27;45606;-64
2023/09/26 09:16:30;;;;;;;1.10;0.85;;;20.00;49.00;;;;;;5108867;27;45368;-71
2023/09/26 09:18:58;;;;;;;0.90;0.82;;;20.00;48.80;;;;;;5109150;27;45407;-72
2023/09/26 09:21:30;;;;;;;0.95;0.80;;;20.10;48.90;;;;;;5109069;27;45326;-72
2023/09/26 09:23:58;;;;;;;0.93;0.90;;;20.10;48.80;;;;;;5109062;27;45383;-71
2023/09/26 09:26:30;;;;;;;1.00;0.90;;;20.10;48.80;;;;;;5108804;27;45380;-71
2023/09/26 09:28:59;;;;;;;1.10;0.90;;;20.10;48.90;;;;;;5108862;27;45393;-71
2023/09/26 09:31:26;;;;;;;1.80;1.30;;;20.20;49.00;;;;;;5109041;27;45404;-71
2023/09/26 09:33:55;;;;;;;1.70;0.95;;;20.20;48.80;;;;;;5108500;27;47223;-72
2023/09/26 09:36:22;;;;;;;2.38;1.00;;;20.30;48.70;;;;;;5108313;27;45474;-71
2023/09/26 09:38:49;;;;;;;1.10;0.88;;;20.30;48.60;;;;;;5108827;27;45409;-72
2023/09/26 09:41:16;;;;;;;1.20;1.08;;;20.30;48.60;;;;;;5107964;27;45305;-71
2023/09/26 09:43:44;;;;;;;1.15;1.02;;;20.40;48.70;;;;;;5108225;27;45304;-70
2023/09/26 09:46:11;;;;;;;0.98;0.80;;;20.40;48.60;;;;;;5108515;27;45314;-71
2023/09/26 09:48:43;;;;;;;1.13;1.02;;;20.40;48.70;;;;;;5108627;27;45391;-70
2023/09/26 09:51:11;;;;;;;1.13;0.82;;;20.50;48.70;;;;;;5108579;27;45473;-71
2023/09/26 09:53:40;;;;;;;1.70;1.20;;;20.50;48.70;;;;;;5107287;27;45374;-71
2023/09/26 09:56:08;;;;;;;1.58;1.02;;;20.50;48.60;;;;;;5107962;27;45397;-71
2023/09/26 09:58:36;;;;;;;1.30;1.20;;;20.60;48.60;;;;;;5108286;27;45345;-71
2023/09/26 10:01:04;;;;;;;1.95;1.10;;;20.60;48.60;;;;;;5108431;27;45488;-70
2023/09/26 10:03:33;;;;;;;2.17;1.20;;;20.70;48.80;;;;;;5107825;27;46372;-70
2023/09/26 10:06:02;;;;;;;1.10;1.10;;;20.70;48.70;;;;;;5109135;27;45325;-71
2023/09/26 10:08:29;;;;;;;1.02;1.00;;;20.80;48.70;;;;;;5108467;27;45334;-71
2023/09/26 10:10:56;;;;;;;1.27;1.10;;;20.90;48.70;;;;;;5108468;27;45410;-71
2023/09/26 10:13:23;;;;;;;1.10;1.00;;;20.90;48.80;;;;;;5107908;27;45335;-71
2023/09/26 10:16:15;;;;;;;1.17;1.02;;;20.90;48.70;;;;;;5108111;27;45300;-72
2023/09/26 10:18:42;;;;;;;1.10;1.00;;;21.00;48.70;;;;;;5104364;27;45644;-71
2023/09/26 10:21:26;;;;;;;0.80;0.80;;;21.10;48.70;;;;;;5108231;27;45155;-70
2023/09/26 10:24:29;;;;;;;0.80;0.80;;;21.10;48.60;;;;;;5107754;27;46546;-70
2023/09/26 10:26:59;;;;;;;2.17;1.00;;;21.20;48.50;;;;;;5107912;27;45312;-70
2023/09/26 10:29:27;;;;;;;0.90;0.90;;;21.30;48.50;;;;;;5105426;27;45591;-71
2023/09/26 10:31:57;;;;;;;1.10;1.00;;;21.30;48.40;;;;;;5108186;27;45372;-72
2023/09/26 10:34:24;;;;;;;1.08;1.00;;;21.40;48.30;;;;;;5107338;27;46385;-70
2023/09/26 10:36:51;;;;;;;0.90;0.90;;;21.50;48.30;;;;;;5107324;27;45300;-70
2023/09/26 10:39:18;;;;;;;0.95;0.95;;;21.60;48.20;;;;;;5104967;27;45270;-72
2023/09/26 10:41:45;;;;;;;1.10;1.00;;;21.60;48.10;;;;;;5107648;27;45323;-71
2023/09/26 10:44:13;;;;;;;1.77;1.00;;;21.70;48.10;;;;;;5107546;27;45505;-70
2023/09/26 10:46:40;;;;;;;1.85;0.93;;;21.80;48.10;;;;;;5107931;27;45268;-71
2023/09/26 10:49:08;;;;;;;1.35;1.00;;;21.90;48.00;;;;;;5108052;27;45361;-70
2023/09/26 10:51:35;;;;;;;1.33;1.02;;;22.00;48.00;;;;;;5107898;27;45363;-70
2023/09/26 10:54:02;;;;;;;1.45;1.00;;;22.10;47.80;;;;;;5106930;27;45327;-70
2023/09/26 10:56:29;;;;;;;1.08;0.90;;;22.20;47.70;;;;;;5107873;27;45317;-71
2023/09/26 10:58:56;;;;;;;2.35;1.30;;;22.20;47.60;;;;;;5107895;27;45291;-71
2023/09/26 11:01:36;;;;;;;1.10;1.00;;;22.40;47.70;;;;;;5107628;27;45418;-71
2023/09/26 11:04:04;;;;;;;1.00;0.85;;;22.50;47.40;;;;;;5107501;27;46364;-71
2023/09/26 11:06:32;;;;;;;1.00;0.95;;;22.60;47.20;;;;;;5107104;27;45292;-71
2023/09/26 11:08:58;;;;;;;1.25;1.15;;;22.70;47.00;;;;;;5107546;27;45354;-72
2023/09/26 11:11:25;;;;;;;1.10;1.05;;;22.80;46.70;;;;;;5105043;27;45415;-71
2023/09/26 11:13:52;;;;;;;1.92;1.10;;;22.90;46.40;;;;;;5107513;27;45374;-71
2023/09/26 11:16:19;;;;;;;1.52;1.02;;;23.00;46.30;;;;;;5107235;27;45275;-71
2023/09/26 11:18:46;;;;;;;0.88;0.88;;;23.10;45.80;;;;;;5107608;27;45240;-71
2023/09/26 11:21:13;;;;;;;1.02;0.90;;;23.20;45.70;;;;;;5107366;27;45488;-71
2023/09/26 11:23:41;;;;;;;2.03;1.10;;;23.30;45.70;;;;;;5106867;27;45466;-71
2023/09/26 11:26:08;;;;;;;2.00;1.02;;;23.40;45.40;;;;;;5107044;27;45366;-71
2023/09/26 11:28:35;;;;;;;2.28;1.30;;;23.40;45.40;;;;;;5107020;27;45311;-72
2023/09/26 11:31:02;;;;;;;2.30;1.00;;;23.60;45.90;;;;;;5107254;27;45267;-71
2023/09/26 11:33:29;;;;;;;1.77;1.10;;;23.60;45.40;;;;;;5106629;27;46906;-71
2023/09/26 11:35:55;;;;;;;1.83;1.58;;;23.80;45.90;;;;;;5106484;27;45478;-71
2023/09/26 11:38:22;;;;;;;1.60;1.17;;;23.80;45.10;;;;;;5106767;27;45283;-71
2023/09/26 11:40:51;;;;;;;1.00;0.90;;;23.90;44.90;;;;;;5106435;27;45308;-71
2023/09/26 11:43:18;;;;;;;1.58;1.05;;;24.00;44.60;;;;;;5106025;27;45448;-71
2023/09/26 11:45:45;;;;;;;1.02;1.00;;;24.00;44.50;;;;;;5106699;27;45387;-70
2023/09/26 11:48:12;;;;;;;0.98;0.95;;;24.10;44.30;;;;;;5107019;27;45395;-71
2023/09/26 11:50:40;;;;;;;1.45;1.15;;;24.20;44.00;;;;;;5107206;27;45445;-72
2023/09/26 11:53:07;;;;;;;1.38;1.27;;;24.30;44.10;;;;;;5106426;27;47255;-71
2023/09/26 11:55:35;;;;;;;1.15;1.05;;;24.40;43.90;;;;;;5106643;27;45352;-71
2023/09/26 11:58:03;;;;;;;1.20;1.08;;;24.50;43.90;;;;;;5106975;27;45465;-72
2023/09/26 12:00:30;;;;;;;1.17;0.90;;;24.60;43.90;;;;;;5106939;27;45457;-71
2023/09/26 12:02:57;;;;;;;1.52;1.40;;;24.70;43.70;;;;;;5106220;27;46529;-72
2023/09/26 12:05:24;;;;;;;1.80;1.20;;;24.70;43.70;;;;;;5106423;27;45342;-71
2023/09/26 12:07:51;;;;;;;1.67;1.17;;;24.80;43.60;;;;;;5106675;27;45458;-71
2023/09/26 12:10:18;;;;;;;1.15;1.05;;;24.90;43.50;;;;;;5106787;27;45545;-71
2023/09/26 12:12:45;;;;;;;3.05;1.25;;;25.00;43.20;;;;;;5106322;27;47251;-71
2023/09/26 12:15:18;;;;;;;2.33;0.90;;;25.00;43.30;;;;;;5106610;27;45306;-71
2023/09/26 12:17:44;;;;;;;2.85;1.00;;;25.10;43.40;;;;;;5108528;27;45302;-71
2023/09/26 12:20:12;;;;;;;1.98;1.10;;;25.20;43.10;;;;;;5110368;27;45375;-72
2023/09/26 12:22:38;;;;;;;1.65;1.17;;;25.30;43.20;;;;;;5109663;27;47298;-71
2023/09/26 12:25:06;;;;;;;1.83;1.10;;;25.30;43.10;;;;;;5109331;27;45259;-71
2023/09/26 12:27:33;;;;;;;2.35;1.05;;;25.40;43.00;;;;;;5109192;27;45363;-71
2023/09/26 12:30:00;;;;;;;1.30;1.20;;;25.50;43.00;;;;;;5110177;27;45355;-71
2023/09/26 12:32:28;;;;;;;2.13;1.08;;;25.60;43.00;;;;;;5109640;27;46583;-71
2023/09/26 12:34:55;;;;;;;1.33;1.17;;;25.60;42.80;;;;;;5109334;27;45252;-71
2023/09/26 12:37:22;;;;;;;0.90;0.80;;;25.70;42.70;;;;;;5109680;27;45346;-71
2023/09/26 12:39:49;;;;;;;1.00;1.00;;;25.80;42.80;;;;;;5109892;27;45385;-72
2023/09/26 12:42:16;;;;;;;1.77;1.08;;;25.90;42.70;;;;;;5109253;27;46299;-72
2023/09/26 12:44:42;;;;;;;1.25;1.00;;;25.90;42.50;;;;;;5109585;27;45257;-72
2023/09/26 12:47:09;;;;;;;0.88;0.88;;;26.00;42.40;;;;;;5109692;27;45382;-72
2023/09/26 12:49:38;;;;;;;1.20;1.10;;;26.10;43.00;;;;;;5109856;27;45471;-70